Accueil
METAR-TAF:

METAR-TAF

Aéroports :

Kwajalein, Îles Marshall

latitude: 08-43N, longitude: 167-44E, altitude: 3 m

Observation

Le bulletin a été fait il y a 26 minutes, à 06:40 UTC
Vent 17 kt de est/nord-est
Température 29°C
Humidité 74%
Pression 1009 hPa
Visibilité: 16.1 km
Nuages fragmentés à une hauteur de 2100 ft
Nuages fragmentés à une hauteur de 2800 ft
Nuages fragmentés à une hauteur de 3200 ft
faible bruine

METAR: PKWA 270640Z AUTO 06017KT 10SM -DZ BKN021 BKN028 BKN032 29/24 A2980 RMK AO2 T02900238

Heure: 19:06 (07:06 UTC)

Prévision

Le bulletin a été fait il y a 1 heure et 46 minutes, à 05:20 UTC
Prévision valable du 27 à 06 UTC au 28 à 06 UTC
Vent 15 kt de est/nord-est
Visibilité: 10 km
Quelques nuages à une hauteur de 2000 ft
Nuages épars à une hauteur de 4000 ft
averses à proximité

TAF: PKWA 270520Z 2706/2806 06015KT P6SM VCSH FEW020 SCT040

Observations et prévisions météorologiques de plus de 4000 aéroports (messages METAR et TAF).

Les stations disponibles sont représentées par des disques jaunes et rouges sur la carte.

Passer la souris dessus pour voir le nom de la station.

Cliquer dessus pour voir les observations et prévisions météorologiques.

Pour changer de carte: cliquez sur les boutons verts avec une croix noire pour zoomer, sur le bouton vert avec un tiret pour effectuer un zoom arrière, ou sur les flèches vertes pour les cartes adjacentes.


METAR-TAF: